createdAt,value
2019-03-13T00:00:08.873Z,51.67
2019-03-13T00:02:38.953Z,53.63
2019-03-13T00:05:09.027Z,48.63
2019-03-13T00:07:38.836Z,50.00
2019-03-13T00:10:08.858Z,61.33
2019-03-13T00:12:39.280Z,53.57
2019-03-13T00:15:09.030Z,58.10
2019-03-13T00:17:39.097Z,53.90
2019-03-13T00:20:08.953Z,49.60
2019-03-13T00:22:38.675Z,56.43
2019-03-13T00:25:09.019Z,53.83
2019-03-13T00:27:39.098Z,57.43
2019-03-13T00:30:09.180Z,60.07
2019-03-13T00:32:39.190Z,60.23
2019-03-13T00:35:08.860Z,56.67
2019-03-13T00:37:38.337Z,61.47
2019-03-13T00:40:08.217Z,62.97
2019-03-13T00:42:37.661Z,64.23
2019-03-13T00:45:07.751Z,59.87
2019-03-13T00:47:38.456Z,66.37
2019-03-13T00:50:08.425Z,65.90
2019-03-13T00:52:38.357Z,71.37
2019-03-13T00:55:08.313Z,64.30
2019-03-13T00:57:38.513Z,63.93
2019-03-13T01:00:09.166Z,63.90
2019-03-13T01:02:39.585Z,76.50
2019-03-13T01:05:09.653Z,62.13
2019-03-13T01:07:39.787Z,62.67
2019-03-13T01:10:09.733Z,64.40
2019-03-13T01:12:40.123Z,67.73
2019-03-13T01:15:09.976Z,65.47
2019-03-13T01:17:39.867Z,70.70
2019-03-13T01:20:09.825Z,72.80
2019-03-13T01:22:39.674Z,69.50
2019-03-13T01:25:09.718Z,66.23
2019-03-13T01:27:39.498Z,69.20
2019-03-13T01:30:09.230Z,70.17
2019-03-13T01:32:38.635Z,75.33
2019-03-13T01:35:08.607Z,69.83
2019-03-13T01:37:38.986Z,64.50
2019-03-13T01:40:09.496Z,66.77
2019-03-13T01:42:39.903Z,61.60
2019-03-13T01:45:10.293Z,55.27
2019-03-13T01:47:40.381Z,51.23
2019-03-13T01:50:10.525Z,50.30
2019-03-13T01:52:40.861Z,46.73
2019-03-13T01:55:10.946Z,54.88
2019-03-13T01:57:41.570Z,47.40
2019-03-13T02:00:11.753Z,44.43
2019-03-13T02:02:42.139Z,46.83
2019-03-13T02:05:12.069Z,47.80
2019-03-13T02:07:42.292Z,44.23
2019-03-13T02:10:11.751Z,44.80
2019-03-13T02:12:41.671Z,47.63
2019-03-13T02:15:11.919Z,43.80
2019-03-13T02:17:41.854Z,50.63
2019-03-13T02:20:12.394Z,44.73
2019-03-13T02:22:42.136Z,50.70
2019-03-13T02:25:12.556Z,45.27
2019-03-13T02:27:42.306Z,47.60
2019-03-13T02:30:13.025Z,45.57
2019-03-13T02:32:43.112Z,54.07
2019-03-13T02:35:13.826Z,47.80
2019-03-13T02:37:45.072Z,54.00
2019-03-13T02:40:15.588Z,53.23
2019-03-13T02:42:46.298Z,47.67
2019-03-13T02:45:16.379Z,51.83
2019-03-13T02:47:46.578Z,50.47
2019-03-13T02:50:16.222Z,46.60
2019-03-13T02:52:46.706Z,49.77
2019-03-13T02:55:17.025Z,47.90
2019-03-13T02:57:47.146Z,49.30
2019-03-13T03:00:17.828Z,51.77
2019-03-13T03:02:48.232Z,55.37
2019-03-13T03:05:18.865Z,51.77
2019-03-13T03:07:48.877Z,56.60
2019-03-13T03:10:19.263Z,49.77
2019-03-13T03:12:50.145Z,48.90
2019-03-13T03:15:20.867Z,52.37
2019-03-13T03:17:51.935Z,53.30
2019-03-13T03:20:22.945Z,52.03
2019-03-13T03:22:53.019Z,54.33
2019-03-13T03:25:23.106Z,47.33
2019-03-13T03:27:53.829Z,52.43
2019-03-13T03:30:24.414Z,50.97
2019-03-13T03:32:54.610Z,47.07
2019-03-13T03:35:25.069Z,47.57
2019-03-13T03:37:55.584Z,47.53
2019-03-13T03:40:25.833Z,47.67
2019-03-13T03:42:56.224Z,44.77
2019-03-13T03:45:26.619Z,48.00
2019-03-13T03:47:57.404Z,50.53
2019-03-13T03:50:28.061Z,46.57
2019-03-13T03:52:58.190Z,47.20
2019-03-13T03:55:27.898Z,49.67
2019-03-13T03:57:58.646Z,51.17
2019-03-13T04:00:29.018Z,49.70
2019-03-13T04:02:59.001Z,48.53
2019-03-13T04:05:29.155Z,50.70
2019-03-13T04:07:59.476Z,48.30
2019-03-13T04:10:29.676Z,55.17
2019-03-13T04:12:59.473Z,47.60
2019-03-13T04:15:29.817Z,47.27
2019-03-13T04:18:00.224Z,48.40
2019-03-13T04:20:30.621Z,50.67
2019-03-13T04:23:00.715Z,51.33
2019-03-13T04:25:30.792Z,49.87
2019-03-13T04:28:00.857Z,50.83
2019-03-13T04:30:30.958Z,55.47
2019-03-13T04:33:00.667Z,58.20
2019-03-13T04:35:30.833Z,53.70
2019-03-13T04:38:01.185Z,59.20
2019-03-13T04:40:31.236Z,62.37
2019-03-13T04:43:01.380Z,58.27
2019-03-13T04:45:31.857Z,58.07
2019-03-13T04:48:02.248Z,56.53
2019-03-13T04:50:32.648Z,57.07
2019-03-13T04:53:02.942Z,55.23
2019-03-13T04:55:33.348Z,55.67
2019-03-13T04:58:03.429Z,60.47
2019-03-13T05:00:33.174Z,60.63
2019-03-13T05:03:02.936Z,70.50
2019-03-13T05:05:33.355Z,63.50
2019-03-13T05:08:03.114Z,59.37
2019-03-13T05:10:33.097Z,57.77
2019-03-13T05:13:02.854Z,57.50
2019-03-13T05:15:33.017Z,65.63
2019-03-13T05:18:03.737Z,63.97
2019-03-13T05:20:33.823Z,62.33
2019-03-13T05:23:03.911Z,58.17
2019-03-13T05:25:33.997Z,59.63
2019-03-13T05:28:04.375Z,62.27
2019-03-13T05:30:34.468Z,64.63
2019-03-13T05:33:04.223Z,60.33
2019-03-13T05:35:34.666Z,60.33
2019-03-13T05:38:04.704Z,62.95
2019-03-13T05:40:35.263Z,61.63
2019-03-13T05:43:05.522Z,61.13
2019-03-13T05:45:36.537Z,63.70
2019-03-13T05:48:07.256Z,63.90
2019-03-13T05:50:37.666Z,58.50
2019-03-13T05:53:08.065Z,67.10
2019-03-13T05:55:39.107Z,64.50
2019-03-13T05:58:09.405Z,59.90
2019-03-13T06:00:40.226Z,70.97
2019-03-13T06:03:10.297Z,64.65
2019-03-13T06:05:40.709Z,63.63
2019-03-13T06:08:11.755Z,65.90
2019-03-13T06:10:41.682Z,64.80
2019-03-13T06:13:11.906Z,65.73
2019-03-13T06:15:42.621Z,66.00
2019-03-13T06:18:13.027Z,79.32
2019-03-13T06:20:43.425Z,66.77
2019-03-13T06:23:14.791Z,64.63
2019-03-13T06:25:44.870Z,64.95
2019-03-13T06:28:14.938Z,63.17
2019-03-13T06:30:45.614Z,75.12
2019-03-13T06:33:15.414Z,64.35
2019-03-13T06:35:45.862Z,71.90
2019-03-13T06:38:16.118Z,67.90
2019-03-13T06:40:46.307Z,66.12
2019-03-13T06:43:16.399Z,68.90
2019-03-13T06:45:46.142Z,67.45
2019-03-13T06:48:16.691Z,73.83
2019-03-13T06:50:47.268Z,68.70
2019-03-13T06:53:17.349Z,74.95
2019-03-13T06:55:47.750Z,75.27
2019-03-13T06:58:17.452Z,70.42
2019-03-13T07:00:47.669Z,68.37
2019-03-13T07:03:17.661Z,67.93
2019-03-13T07:05:47.790Z,67.93
2019-03-13T07:08:17.494Z,68.90
2019-03-13T07:10:47.909Z,65.03
2019-03-13T07:13:18.053Z,68.50
2019-03-13T07:15:47.740Z,66.82
2019-03-13T07:18:18.135Z,67.75
2019-03-13T07:20:48.859Z,64.10
2019-03-13T07:23:19.589Z,72.78
2019-03-13T07:25:49.576Z,75.37
2019-03-13T07:28:19.108Z,68.75
2019-03-13T07:30:49.516Z,67.35
2019-03-13T07:33:19.712Z,69.00
2019-03-13T07:35:50.315Z,71.75
2019-03-13T07:38:20.706Z,70.20
2019-03-13T07:40:51.117Z,71.50
2019-03-13T07:43:21.058Z,72.53
2019-03-13T07:45:51.258Z,79.25
2019-03-13T07:48:22.646Z,73.83
2019-03-13T07:50:53.355Z,78.02
2019-03-13T07:53:24.096Z,77.70
2019-03-13T07:55:54.887Z,76.57
2019-03-13T07:58:25.826Z,73.40
2019-03-13T08:00:56.543Z,73.93
2019-03-13T08:03:26.939Z,71.30
2019-03-13T08:05:57.663Z,71.95
2019-03-13T08:08:28.058Z,76.50
2019-03-13T08:10:58.781Z,75.42
2019-03-13T08:13:29.503Z,72.75
2019-03-13T08:15:59.817Z,77.50
2019-03-13T08:18:30.621Z,77.17
2019-03-13T08:21:01.339Z,78.00
2019-03-13T08:23:31.415Z,75.72
2019-03-13T08:26:02.136Z,81.97
2019-03-13T08:28:32.241Z,81.70
2019-03-13T08:31:02.616Z,84.95
2019-03-13T08:33:33.027Z,72.87
2019-03-13T08:36:03.424Z,79.87
2019-03-13T08:38:33.498Z,77.78
2019-03-13T08:41:03.903Z,77.20
2019-03-13T08:43:34.357Z,75.67
2019-03-13T08:46:04.697Z,82.42
2019-03-13T08:48:34.784Z,77.30
2019-03-13T08:51:05.198Z,76.92
2019-03-13T08:53:34.933Z,74.42
2019-03-13T08:56:05.007Z,78.17
2019-03-13T08:58:35.156Z,78.42
2019-03-13T09:01:06.153Z,83.30
2019-03-13T09:03:36.227Z,78.83
2019-03-13T09:06:06.095Z,80.70
2019-03-13T09:08:36.066Z,77.10
2019-03-13T09:11:05.850Z,82.35
2019-03-13T09:13:35.896Z,81.20
2019-03-13T09:16:05.298Z,83.60
2019-03-13T09:18:35.117Z,79.15
2019-03-13T09:21:07.287Z,86.20
2019-03-13T09:23:37.695Z,80.12
2019-03-13T09:26:07.874Z,83.27
2019-03-13T09:28:37.502Z,83.52
2019-03-13T09:31:07.187Z,81.87
2019-03-13T09:33:36.918Z,83.95
2019-03-13T09:36:06.817Z,83.80
2019-03-13T09:38:38.484Z,86.32
2019-03-13T09:41:07.467Z,87.55
2019-03-13T09:43:38.962Z,84.40
2019-03-13T09:46:08.329Z,86.95
2019-03-13T09:48:37.625Z,79.25
2019-03-13T09:51:07.478Z,79.67
2019-03-13T09:53:37.180Z,78.57
2019-03-13T09:56:06.856Z,74.80
2019-03-13T09:58:36.697Z,73.37
2019-03-13T10:01:06.606Z,86.28
2019-03-13T10:03:38.215Z,74.20
2019-03-13T10:06:07.845Z,70.55
2019-03-13T10:08:37.860Z,76.62
2019-03-13T10:11:07.654Z,73.80
2019-03-13T10:13:37.447Z,74.45
2019-03-13T10:16:06.830Z,76.82
2019-03-13T10:18:36.624Z,82.97
2019-03-13T10:21:06.109Z,73.62
2019-03-13T10:23:36.287Z,75.50
2019-03-13T10:26:06.366Z,74.97
2019-03-13T10:28:36.093Z,75.22
2019-03-13T10:31:05.360Z,78.00
2019-03-13T10:33:35.130Z,74.12
2019-03-13T10:36:04.891Z,76.47
2019-03-13T10:38:34.499Z,76.90
2019-03-13T10:41:04.407Z,71.95
2019-03-13T10:43:35.281Z,75.13
2019-03-13T10:46:06.035Z,78.25
2019-03-13T10:48:35.805Z,79.45
2019-03-13T10:51:05.371Z,77.32
2019-03-13T10:53:35.021Z,76.47
2019-03-13T10:56:04.937Z,77.37
2019-03-13T10:58:34.523Z,80.35
2019-03-13T11:01:04.287Z,80.10
2019-03-13T11:03:33.641Z,79.23
2019-03-13T11:06:03.509Z,80.07
2019-03-13T11:08:32.825Z,79.42
2019-03-13T11:11:02.627Z,76.93
2019-03-13T11:13:32.171Z,81.77
2019-03-13T11:16:02.341Z,79.85
2019-03-13T11:18:32.119Z,82.27
2019-03-13T11:21:01.663Z,82.10
2019-03-13T11:23:31.175Z,80.97
2019-03-13T11:26:00.507Z,79.33
2019-03-13T11:28:35.810Z,77.70
2019-03-13T11:31:06.791Z,79.12
2019-03-13T11:33:36.697Z,76.80
2019-03-13T11:36:08.843Z,75.65
2019-03-13T11:38:39.407Z,79.53
2019-03-13T11:41:09.352Z,79.80
2019-03-13T11:43:41.365Z,75.60
2019-03-13T11:46:09.776Z,112.40
2019-03-13T11:48:40.598Z,158.53
2019-03-13T11:51:11.984Z,131.70
2019-03-13T11:53:42.978Z,101.17
2019-03-13T11:56:12.426Z,102.13
2019-03-13T11:58:42.643Z,104.33
2019-03-13T12:01:12.945Z,137.53
2019-03-13T12:03:42.944Z,127.43
2019-03-13T12:06:12.713Z,145.40
2019-03-13T12:08:42.875Z,125.70
2019-03-13T12:11:12.354Z,149.40
2019-03-13T12:13:44.725Z,172.83
2019-03-13T12:16:15.099Z,148.70
2019-03-13T12:18:46.402Z,134.60
2019-03-13T12:21:16.068Z,130.97
2019-03-13T12:23:45.905Z,127.63
2019-03-13T12:26:16.129Z,100.30
2019-03-13T12:28:46.519Z,98.00
2019-03-13T12:31:17.626Z,97.87
2019-03-13T12:33:50.073Z,95.73
2019-03-13T12:36:20.427Z,100.43
2019-03-13T12:38:51.150Z,102.17
2019-03-13T12:41:20.707Z,98.13
2019-03-13T12:43:51.537Z,102.33
2019-03-13T12:46:21.232Z,100.30
2019-03-13T12:48:51.301Z,95.20
2019-03-13T12:51:22.528Z,104.10
2019-03-13T12:53:52.112Z,110.90
2019-03-13T12:56:22.468Z,106.57
2019-03-13T12:58:53.380Z,111.47
2019-03-13T13:01:23.795Z,117.17
2019-03-13T13:03:55.882Z,131.63
2019-03-13T13:06:26.004Z,115.90
2019-03-13T13:08:56.550Z,105.73
2019-03-13T13:11:27.979Z,99.93
2019-03-13T13:13:59.174Z,94.67
2019-03-13T13:16:30.854Z,93.53
2019-03-13T13:19:05.237Z,108.87
2019-03-13T13:21:37.908Z,109.07
2019-03-13T13:24:11.353Z,104.00
2019-03-13T13:26:42.085Z,102.40
2019-03-13T13:29:12.218Z,101.23
2019-03-13T13:31:42.168Z,100.47
2019-03-13T13:34:13.070Z,99.17
2019-03-13T13:36:43.067Z,98.40
2019-03-13T13:39:13.305Z,97.30
2019-03-13T13:41:49.711Z,95.87
2019-03-13T13:44:22.207Z,115.77
2019-03-13T13:46:52.398Z,131.20
2019-03-13T13:49:25.388Z,125.27
2019-03-13T13:51:55.643Z,126.83
2019-03-13T13:54:28.810Z,131.50
2019-03-13T13:57:02.397Z,125.93
2019-03-13T13:59:33.015Z,128.77
2019-03-13T14:02:02.766Z,137.57
2019-03-13T14:04:38.443Z,121.13
2019-03-13T14:07:13.245Z,117.17
2019-03-13T14:09:47.088Z,124.67
2019-03-13T14:12:20.108Z,136.63
2019-03-13T14:14:55.165Z,121.50
2019-03-13T14:17:28.571Z,125.67
2019-03-13T14:19:58.783Z,120.63
2019-03-13T14:22:28.946Z,130.40
2019-03-13T14:24:58.455Z,118.63
2019-03-13T14:27:32.526Z,137.30
2019-03-13T14:30:03.377Z,151.37
2019-03-13T14:32:33.462Z,149.20
2019-03-13T14:35:03.904Z,145.67
2019-03-13T14:37:33.921Z,155.50
2019-03-13T14:40:03.597Z,167.03
2019-03-13T14:42:33.076Z,174.30
2019-03-13T14:45:02.943Z,172.37
2019-03-13T14:47:33.657Z,155.60
2019-03-13T14:50:03.275Z,162.00
2019-03-13T14:52:35.147Z,169.73
2019-03-13T14:55:11.390Z,157.93
2019-03-13T14:57:43.955Z,163.37
2019-03-13T15:00:16.109Z,170.40
2019-03-13T15:02:50.570Z,173.03
2019-03-13T15:05:27.472Z,170.37
2019-03-13T15:08:02.738Z,153.37
2019-03-13T15:10:39.994Z,170.27
2019-03-13T15:13:16.245Z,189.30
2019-03-13T15:15:48.608Z,186.47
2019-03-13T15:18:23.740Z,160.43
2019-03-13T15:20:56.858Z,142.40
2019-03-13T15:23:31.336Z,133.87
2019-03-13T15:26:04.197Z,147.40
2019-03-13T15:28:37.241Z,144.67
2019-03-13T15:31:11.448Z,144.33
2019-03-13T15:33:44.333Z,158.20
2019-03-13T15:36:17.515Z,160.00
2019-03-13T15:38:48.673Z,171.40
2019-03-13T15:41:19.222Z,169.30
2019-03-13T15:43:48.877Z,157.00
2019-03-13T15:46:18.680Z,158.27
2019-03-13T15:48:48.833Z,176.07
2019-03-13T15:51:18.424Z,181.73
2019-03-13T15:53:48.455Z,195.87
2019-03-13T15:56:18.469Z,224.00
2019-03-13T15:58:48.380Z,221.80
2019-03-13T16:01:18.083Z,204.40
2019-03-13T16:03:48.739Z,211.50
2019-03-13T16:06:18.301Z,201.70
2019-03-13T16:08:48.540Z,190.60
2019-03-13T16:11:24.461Z,187.60
2019-03-13T16:13:55.104Z,198.83
2019-03-13T16:16:24.819Z,189.87
2019-03-13T16:18:54.362Z,181.23
2019-03-13T16:21:24.374Z,191.40
2019-03-13T16:23:59.877Z,176.93
2019-03-13T16:26:36.412Z,181.70
2019-03-13T16:29:07.329Z,170.07
2019-03-13T16:31:37.462Z,167.33
2019-03-13T16:34:11.517Z,173.37
2019-03-13T16:36:50.446Z,155.90
2019-03-13T16:39:26.319Z,151.80
2019-03-13T16:41:57.294Z,142.50
2019-03-13T16:44:30.094Z,144.47
2019-03-13T16:47:08.661Z,139.67
2019-03-13T16:49:42.625Z,131.67
2019-03-13T16:52:12.487Z,123.00
2019-03-13T16:54:49.155Z,116.93
2019-03-13T16:57:25.379Z,123.17
2019-03-13T17:02:40.665Z,116.70
2019-03-13T17:05:18.692Z,116.07
2019-03-13T17:07:50.111Z,122.63
2019-03-13T17:10:18.853Z,130.27
2019-03-13T17:12:48.655Z,137.40
2019-03-13T17:15:18.043Z,130.47
2019-03-13T17:17:47.742Z,138.43
2019-03-13T17:20:18.030Z,129.07
2019-03-13T17:22:48.084Z,130.80
2019-03-13T17:25:17.629Z,133.20
2019-03-13T17:27:47.737Z,139.40
2019-03-13T17:30:18.279Z,139.77
2019-03-13T17:32:47.983Z,122.80
2019-03-13T17:35:17.518Z,134.27
2019-03-13T17:37:46.991Z,127.40
2019-03-13T17:40:17.650Z,127.53
2019-03-13T17:42:53.689Z,125.67
2019-03-13T17:45:23.502Z,130.00
2019-03-13T17:47:53.238Z,123.70
2019-03-13T17:50:23.285Z,110.83
2019-03-13T17:52:53.036Z,117.33
2019-03-13T17:55:22.789Z,114.00
2019-03-13T17:57:52.496Z,115.23
2019-03-13T18:00:22.183Z,113.47
2019-03-13T18:02:52.095Z,115.43
2019-03-13T18:05:22.136Z,113.77
2019-03-13T18:07:51.661Z,110.77
2019-03-13T18:10:21.706Z,115.27
2019-03-13T18:12:51.355Z,113.50
2019-03-13T18:15:21.598Z,101.73
2019-03-13T18:17:51.260Z,103.50
2019-03-13T18:20:21.395Z,113.13
2019-03-13T18:22:51.655Z,110.77
2019-03-13T18:25:21.601Z,114.40
2019-03-13T18:27:51.448Z,107.90
2019-03-13T18:30:21.179Z,107.17
2019-03-13T18:32:51.027Z,112.10
2019-03-13T18:35:20.936Z,107.33
2019-03-13T18:37:50.283Z,102.97
2019-03-13T18:40:20.441Z,99.83
2019-03-13T18:42:50.798Z,103.83
2019-03-13T18:45:21.178Z,109.67
2019-03-13T18:47:51.190Z,114.23
2019-03-13T18:50:22.070Z,99.23
2019-03-13T18:52:51.749Z,99.03
2019-03-13T18:55:21.363Z,103.00
2019-03-13T18:57:51.256Z,98.83
2019-03-13T19:00:21.899Z,98.07
2019-03-13T19:02:52.312Z,97.60
2019-03-13T19:05:22.566Z,93.70
2019-03-13T19:07:52.105Z,97.47
2019-03-13T19:10:21.717Z,105.07
2019-03-13T19:12:51.570Z,94.53
2019-03-13T19:15:21.573Z,96.93
2019-03-13T19:17:51.716Z,89.40
2019-03-13T19:20:21.955Z,96.97
2019-03-13T19:22:52.039Z,94.67
2019-03-13T19:25:22.325Z,89.67
2019-03-13T19:27:52.291Z,98.70
2019-03-13T19:30:22.627Z,99.20
2019-03-13T19:32:53.024Z,95.53
2019-03-13T19:35:22.425Z,93.90
2019-03-13T19:37:52.793Z,101.87
2019-03-13T19:40:24.221Z,92.70
2019-03-13T19:42:54.309Z,91.33
2019-03-13T19:45:24.381Z,88.27
2019-03-13T19:47:54.785Z,89.47
2019-03-13T19:50:28.026Z,96.37
2019-03-13T19:52:57.193Z,93.60
2019-03-13T19:55:27.570Z,95.63
2019-03-13T19:57:57.825Z,97.80
2019-03-13T20:00:28.341Z,90.70
2019-03-13T20:03:00.231Z,93.10
2019-03-13T20:05:29.190Z,89.87
2019-03-13T20:07:59.570Z,90.87
2019-03-13T20:10:29.338Z,86.57
2019-03-13T20:12:59.151Z,94.93
2019-03-13T20:15:28.863Z,94.77
2019-03-13T20:17:59.010Z,95.80
2019-03-13T20:20:28.714Z,96.07
2019-03-13T20:22:58.846Z,101.00
2019-03-13T20:25:29.501Z,82.70
2019-03-13T20:27:59.664Z,87.93
2019-03-13T20:30:29.736Z,83.17
2019-03-13T20:33:00.401Z,73.93
2019-03-13T20:35:30.146Z,86.47
2019-03-13T20:38:00.636Z,81.07
2019-03-13T20:40:31.252Z,77.80
2019-03-13T20:43:02.177Z,69.67
2019-03-13T20:45:31.161Z,76.40
2019-03-13T20:48:00.611Z,69.53
2019-03-13T20:50:37.360Z,70.87
2019-03-13T20:53:01.344Z,74.10
2019-03-13T20:55:30.878Z,66.53
2019-03-13T20:58:00.275Z,67.57
2019-03-13T21:00:30.640Z,66.63
2019-03-13T21:03:00.185Z,71.70
2019-03-13T21:05:30.213Z,76.80
2019-03-13T21:08:00.241Z,72.70
2019-03-13T21:10:30.399Z,76.73
2019-03-13T21:13:00.107Z,71.93
2019-03-13T21:15:29.595Z,76.97
2019-03-13T21:17:59.578Z,83.20
2019-03-13T21:20:29.986Z,80.40
2019-03-13T21:22:59.754Z,96.77
2019-03-13T21:25:29.334Z,88.83
2019-03-13T21:27:59.008Z,94.90
2019-03-13T21:30:28.480Z,93.73
2019-03-13T21:32:58.237Z,84.10
2019-03-13T21:35:28.281Z,88.43
2019-03-13T21:37:57.979Z,88.03
2019-03-13T21:40:31.869Z,85.13
2019-03-13T21:42:59.238Z,94.70
2019-03-13T21:45:40.449Z,93.33
2019-03-13T21:47:59.377Z,93.43
2019-03-13T21:50:29.984Z,93.73
2019-03-13T21:52:59.485Z,97.97
2019-03-13T21:55:29.499Z,91.27
2019-03-13T21:57:59.633Z,98.30
2019-03-13T22:00:29.437Z,87.73
2019-03-13T22:02:59.210Z,97.80
2019-03-13T22:05:29.883Z,100.03
2019-03-13T22:07:59.975Z,94.13
2019-03-13T22:10:29.731Z,96.67
2019-03-13T22:12:59.784Z,97.33
2019-03-13T22:15:29.914Z,91.13
2019-03-13T22:17:59.331Z,98.97
2019-03-13T22:20:29.359Z,95.63
2019-03-13T22:22:59.510Z,91.73
2019-03-13T22:25:28.917Z,88.53
2019-03-13T22:27:58.935Z,88.40
2019-03-13T22:30:29.361Z,83.73
2019-03-13T22:32:59.513Z,93.93
2019-03-13T22:35:29.188Z,91.73
2019-03-13T22:37:58.475Z,121.23
2019-03-13T22:40:28.460Z,84.57
2019-03-13T22:42:57.742Z,96.90
2019-03-13T22:45:27.039Z,102.73
2019-03-13T22:47:56.300Z,92.87
2019-03-13T22:50:26.051Z,92.10
2019-03-13T22:52:55.763Z,94.17
2019-03-13T22:55:25.029Z,85.20
2019-03-13T22:57:54.529Z,89.00
2019-03-13T23:00:24.035Z,95.13
2019-03-13T23:02:53.343Z,101.20
2019-03-13T23:05:23.115Z,125.13
2019-03-13T23:07:52.341Z,117.27
2019-03-13T23:10:21.650Z,118.93
2019-03-13T23:12:51.171Z,112.73
2019-03-13T23:15:20.687Z,117.77
2019-03-13T23:17:50.005Z,112.03
2019-03-13T23:20:19.887Z,121.50
2019-03-13T23:22:49.388Z,117.40
2019-03-13T23:25:18.977Z,109.70
2019-03-13T23:27:48.463Z,106.80
2019-03-13T23:30:18.173Z,107.13
2019-03-13T23:32:47.675Z,100.70
2019-03-13T23:35:17.661Z,103.67
2019-03-13T23:37:47.749Z,94.83
2019-03-13T23:40:18.362Z,96.10
2019-03-13T23:42:48.690Z,94.30
2019-03-13T23:45:18.962Z,100.53
2019-03-13T23:47:48.712Z,102.63
2019-03-13T23:50:18.513Z,123.73
2019-03-13T23:52:48.224Z,130.70
2019-03-13T23:55:17.726Z,122.63
2019-03-13T23:57:47.815Z,130.63
